sensor_id;sensor_type;location;lat;lon;timestamp;temperature;humidity
23069;DHT22;11702;50.856;4.348;2022-11-15T00:01:35;11.90;99.90
23069;DHT22;11702;50.856;4.348;2022-11-15T00:04:03;11.90;99.90
23069;DHT22;11702;50.856;4.348;2022-11-15T00:06:29;11.90;99.90
23069;DHT22;11702;50.856;4.348;2022-11-15T00:08:58;12.00;99.90
23069;DHT22;11702;50.856;4.348;2022-11-15T00:11:24;12.10;99.90
23069;DHT22;11702;50.856;4.348;2022-11-15T00:13:50;12.00;99.90
23069;DHT22;11702;50.856;4.348;2022-11-15T00:16:16;12.00;99.90
23069;DHT22;11702;50.856;4.348;2022-11-15T00:18:41;12.00;99.90
23069;DHT22;11702;50.856;4.348;2022-11-15T00:21:10;12.00;99.90
23069;DHT22;11702;50.856;4.348;2022-11-15T00:23:36;11.90;99.90
23069;DHT22;11702;50.856;4.348;2022-11-15T00:26:03;11.80;99.90
23069;DHT22;11702;50.856;4.348;2022-11-15T00:28:29;11.80;99.90
23069;DHT22;11702;50.856;4.348;2022-11-15T00:31:03;11.80;99.90
23069;DHT22;11702;50.856;4.348;2022-11-15T00:33:29;12.00;99.90
23069;DHT22;11702;50.856;4.348;2022-11-15T00:36:07;12.00;99.90
23069;DHT22;11702;50.856;4.348;2022-11-15T00:38:35;12.20;99.90
23069;DHT22;11702;50.856;4.348;2022-11-15T00:41:02;12.20;99.90
23069;DHT22;11702;50.856;4.348;2022-11-15T00:43:28;12.10;99.90
23069;DHT22;11702;50.856;4.348;2022-11-15T00:45:53;12.10;99.90
23069;DHT22;11702;50.856;4.348;2022-11-15T00:48:19;12.10;99.90
23069;DHT22;11702;50.856;4.348;2022-11-15T00:50:45;12.20;99.90
23069;DHT22;11702;50.856;4.348;2022-11-15T00:53:10;12.20;99.90
23069;DHT22;11702;50.856;4.348;2022-11-15T00:55:36;12.20;99.90
23069;DHT22;11702;50.856;4.348;2022-11-15T00:58:01;12.30;99.90
23069;DHT22;11702;50.856;4.348;2022-11-15T01:00:27;12.40;99.90
23069;DHT22;11702;50.856;4.348;2022-11-15T01:02:53;12.30;99.90
23069;DHT22;11702;50.856;4.348;2022-11-15T01:05:19;12.30;99.90
23069;DHT22;11702;50.856;4.348;2022-11-15T01:07:44;12.20;99.90
23069;DHT22;11702;50.856;4.348;2022-11-15T01:10:10;12.20;99.90
23069;DHT22;11702;50.856;4.348;2022-11-15T01:12:36;12.20;99.90
23069;DHT22;11702;50.856;4.348;2022-11-15T01:15:02;12.30;99.90
23069;DHT22;11702;50.856;4.348;2022-11-15T01:17:28;12.50;99.90
23069;DHT22;11702;50.856;4.348;2022-11-15T01:19:54;12.50;99.90
23069;DHT22;11702;50.856;4.348;2022-11-15T01:22:19;12.60;99.90
23069;DHT22;11702;50.856;4.348;2022-11-15T01:24:45;12.50;99.90
23069;DHT22;11702;50.856;4.348;2022-11-15T01:27:10;12.40;99.90
23069;DHT22;11702;50.856;4.348;2022-11-15T01:29:36;12.50;99.90
23069;DHT22;11702;50.856;4.348;2022-11-15T01:32:02;12.50;99.90
23069;DHT22;11702;50.856;4.348;2022-11-15T01:34:27;12.60;99.90
23069;DHT22;11702;50.856;4.348;2022-11-15T01:36:53;12.70;99.90
23069;DHT22;11702;50.856;4.348;2022-11-15T01:39:18;12.70;99.90
23069;DHT22;11702;50.856;4.348;2022-11-15T01:41:44;12.50;99.90
23069;DHT22;11702;50.856;4.348;2022-11-15T01:44:38;12.60;99.90
23069;DHT22;11702;50.856;4.348;2022-11-15T01:47:15;12.60;99.90
23069;DHT22;11702;50.856;4.348;2022-11-15T01:49:49;12.50;99.90
23069;DHT22;11702;50.856;4.348;2022-11-15T01:52:19;12.30;99.90
23069;DHT22;11702;50.856;4.348;2022-11-15T01:54:45;12.20;99.90
23069;DHT22;11702;50.856;4.348;2022-11-15T01:57:12;12.20;99.90
23069;DHT22;11702;50.856;4.348;2022-11-15T01:59:40;12.20;99.90
23069;DHT22;11702;50.856;4.348;2022-11-15T02:02:07;12.20;99.90
23069;DHT22;11702;50.856;4.348;2022-11-15T02:04:40;12.10;99.90
23069;DHT22;11702;50.856;4.348;2022-11-15T02:07:08;12.10;99.90
23069;DHT22;11702;50.856;4.348;2022-11-15T02:09:36;12.00;99.90
23069;DHT22;11702;50.856;4.348;2022-11-15T02:12:02;12.10;99.90
23069;DHT22;11702;50.856;4.348;2022-11-15T02:14:28;12.00;99.90
23069;DHT22;11702;50.856;4.348;2022-11-15T02:23:48;12.00;99.90
23069;DHT22;11702;50.856;4.348;2022-11-15T02:26:17;12.00;99.90
23069;DHT22;11702;50.856;4.348;2022-11-15T02:29:06;12.00;99.90
23069;DHT22;11702;50.856;4.348;2022-11-15T02:31:51;11.90;99.90
23069;DHT22;11702;50.856;4.348;2022-11-15T02:37:16;11.90;99.90
23069;DHT22;11702;50.856;4.348;2022-11-15T02:39:49;12.00;99.90
23069;DHT22;11702;50.856;4.348;2022-11-15T02:42:24;12.00;99.90
23069;DHT22;11702;50.856;4.348;2022-11-15T02:45:13;12.00;99.90
23069;DHT22;11702;50.856;4.348;2022-11-15T02:47:44;12.00;99.90
23069;DHT22;11702;50.856;4.348;2022-11-15T02:50:14;12.00;99.90
23069;DHT22;11702;50.856;4.348;2022-11-15T02:52:41;12.00;99.90
23069;DHT22;11702;50.856;4.348;2022-11-15T02:55:48;12.00;99.90
23069;DHT22;11702;50.856;4.348;2022-11-15T03:00:50;12.10;99.90
23069;DHT22;11702;50.856;4.348;2022-11-15T03:06:11;12.00;99.90
23069;DHT22;11702;50.856;4.348;2022-11-15T03:09:06;12.10;99.90
23069;DHT22;11702;50.856;4.348;2022-11-15T03:11:38;12.00;99.90
23069;DHT22;11702;50.856;4.348;2022-11-15T03:14:34;12.10;99.90
23069;DHT22;11702;50.856;4.348;2022-11-15T03:17:28;12.10;99.90
23069;DHT22;11702;50.856;4.348;2022-11-15T03:20:00;12.00;99.90
23069;DHT22;11702;50.856;4.348;2022-11-15T03:22:29;11.90;99.90
23069;DHT22;11702;50.856;4.348;2022-11-15T03:25:01;11.90;99.90
23069;DHT22;11702;50.856;4.348;2022-11-15T03:27:38;11.90;99.90
23069;DHT22;11702;50.856;4.348;2022-11-15T03:30:06;12.00;99.90
23069;DHT22;11702;50.856;4.348;2022-11-15T03:32:38;12.00;99.90
23069;DHT22;11702;50.856;4.348;2022-11-15T03:35:09;11.90;99.90
23069;DHT22;11702;50.856;4.348;2022-11-15T03:37:48;11.80;99.90
23069;DHT22;11702;50.856;4.348;2022-11-15T03:40:16;11.90;99.90
23069;DHT22;11702;50.856;4.348;2022-11-15T03:43:05;11.70;99.90
23069;DHT22;11702;50.856;4.348;2022-11-15T03:45:40;11.70;99.90
23069;DHT22;11702;50.856;4.348;2022-11-15T03:48:18;11.70;99.90
23069;DHT22;11702;50.856;4.348;2022-11-15T03:50:46;11.70;99.90
23069;DHT22;11702;50.856;4.348;2022-11-15T03:53:12;11.80;99.90
23069;DHT22;11702;50.856;4.348;2022-11-15T03:55:38;11.90;99.90
23069;DHT22;11702;50.856;4.348;2022-11-15T03:58:03;11.90;99.90
23069;DHT22;11702;50.856;4.348;2022-11-15T04:00:29;11.80;99.90
23069;DHT22;11702;50.856;4.348;2022-11-15T04:02:55;11.70;99.90
23069;DHT22;11702;50.856;4.348;2022-11-15T04:05:21;11.60;99.90
23069;DHT22;11702;50.856;4.348;2022-11-15T04:07:46;11.60;99.90
23069;DHT22;11702;50.856;4.348;2022-11-15T04:10:12;11.70;99.90
23069;DHT22;11702;50.856;4.348;2022-11-15T04:12:40;11.50;99.90
23069;DHT22;11702;50.856;4.348;2022-11-15T04:15:13;11.50;99.90
23069;DHT22;11702;50.856;4.348;2022-11-15T04:17:47;11.50;99.90
23069;DHT22;11702;50.856;4.348;2022-11-15T04:20:22;11.60;99.90
23069;DHT22;11702;50.856;4.348;2022-11-15T04:23:13;11.50;99.90
23069;DHT22;11702;50.856;4.348;2022-11-15T04:26:13;11.60;99.90
23069;DHT22;11702;50.856;4.348;2022-11-15T04:28:40;11.60;99.90
23069;DHT22;11702;50.856;4.348;2022-11-15T04:31:26;11.70;99.90
23069;DHT22;11702;50.856;4.348;2022-11-15T04:33:52;11.70;99.90
23069;DHT22;11702;50.856;4.348;2022-11-15T04:36:18;11.70;99.90
23069;DHT22;11702;50.856;4.348;2022-11-15T04:39:03;11.70;99.90
23069;DHT22;11702;50.856;4.348;2022-11-15T04:41:28;11.60;99.90
23069;DHT22;11702;50.856;4.348;2022-11-15T04:43:57;11.60;99.90
23069;DHT22;11702;50.856;4.348;2022-11-15T04:46:23;11.60;99.90
23069;DHT22;11702;50.856;4.348;2022-11-15T04:48:50;11.50;99.90
23069;DHT22;11702;50.856;4.348;2022-11-15T04:51:16;11.40;99.90
23069;DHT22;11702;50.856;4.348;2022-11-15T04:53:41;11.40;99.90
23069;DHT22;11702;50.856;4.348;2022-11-15T04:56:07;11.30;99.90
23069;DHT22;11702;50.856;4.348;2022-11-15T04:58:33;11.40;99.90
23069;DHT22;11702;50.856;4.348;2022-11-15T05:01:10;11.20;99.90
23069;DHT22;11702;50.856;4.348;2022-11-15T05:03:36;11.00;99.90
23069;DHT22;11702;50.856;4.348;2022-11-15T05:06:20;11.00;99.90
23069;DHT22;11702;50.856;4.348;2022-11-15T05:08:46;10.90;99.90
23069;DHT22;11702;50.856;4.348;2022-11-15T05:11:11;10.80;99.90
23069;DHT22;11702;50.856;4.348;2022-11-15T05:13:37;10.80;99.90
23069;DHT22;11702;50.856;4.348;2022-11-15T05:16:02;10.70;99.90
23069;DHT22;11702;50.856;4.348;2022-11-15T05:18:28;10.70;99.90
23069;DHT22;11702;50.856;4.348;2022-11-15T05:20:53;10.60;99.90
23069;DHT22;11702;50.856;4.348;2022-11-15T05:23:19;10.60;99.90
23069;DHT22;11702;50.856;4.348;2022-11-15T05:25:45;10.60;99.90
23069;DHT22;11702;50.856;4.348;2022-11-15T05:28:10;10.50;99.90
23069;DHT22;11702;50.856;4.348;2022-11-15T05:30:36;10.50;99.90
23069;DHT22;11702;50.856;4.348;2022-11-15T05:33:01;10.50;99.90
23069;DHT22;11702;50.856;4.348;2022-11-15T05:35:31;10.40;99.90
23069;DHT22;11702;50.856;4.348;2022-11-15T05:37:59;10.40;99.90
23069;DHT22;11702;50.856;4.348;2022-11-15T05:40:25;10.30;99.90
23069;DHT22;11702;50.856;4.348;2022-11-15T05:42:51;10.20;99.90
23069;DHT22;11702;50.856;4.348;2022-11-15T05:45:17;10.20;99.90
23069;DHT22;11702;50.856;4.348;2022-11-15T05:47:43;10.10;99.90
23069;DHT22;11702;50.856;4.348;2022-11-15T05:50:12;10.10;99.90
23069;DHT22;11702;50.856;4.348;2022-11-15T05:52:40;10.00;99.90
23069;DHT22;11702;50.856;4.348;2022-11-15T05:55:07;10.10;99.90
23069;DHT22;11702;50.856;4.348;2022-11-15T05:57:34;9.90;99.90
23069;DHT22;11702;50.856;4.348;2022-11-15T05:59:59;10.00;99.90
23069;DHT22;11702;50.856;4.348;2022-11-15T06:02:25;9.90;99.90
23069;DHT22;11702;50.856;4.348;2022-11-15T06:04:51;10.10;99.90
23069;DHT22;11702;50.856;4.348;2022-11-15T06:07:16;10.10;99.90
23069;DHT22;11702;50.856;4.348;2022-11-15T06:09:42;10.10;99.90
23069;DHT22;11702;50.856;4.348;2022-11-15T06:12:07;10.00;99.90
23069;DHT22;11702;50.856;4.348;2022-11-15T06:14:33;10.00;99.90
23069;DHT22;11702;50.856;4.348;2022-11-15T06:16:58;9.90;99.90
23069;DHT22;11702;50.856;4.348;2022-11-15T06:19:24;10.00;99.90
23069;DHT22;11702;50.856;4.348;2022-11-15T06:21:52;9.90;99.90
23069;DHT22;11702;50.856;4.348;2022-11-15T06:24:18;9.80;99.90
23069;DHT22;11702;50.856;4.348;2022-11-15T06:26:43;9.80;99.90
23069;DHT22;11702;50.856;4.348;2022-11-15T06:29:09;9.70;99.90
23069;DHT22;11702;50.856;4.348;2022-11-15T06:31:35;9.70;99.90
23069;DHT22;11702;50.856;4.348;2022-11-15T06:34:01;9.70;99.90
23069;DHT22;11702;50.856;4.348;2022-11-15T06:36:26;9.60;99.90
23069;DHT22;11702;50.856;4.348;2022-11-15T06:38:52;9.50;99.90
23069;DHT22;11702;50.856;4.348;2022-11-15T06:41:18;9.40;99.90
23069;DHT22;11702;50.856;4.348;2022-11-15T06:43:43;9.50;99.90
23069;DHT22;11702;50.856;4.348;2022-11-15T06:46:09;9.50;99.90
23069;DHT22;11702;50.856;4.348;2022-11-15T06:48:35;9.40;99.90
23069;DHT22;11702;50.856;4.348;2022-11-15T06:51:04;9.40;99.90
23069;DHT22;11702;50.856;4.348;2022-11-15T06:53:30;9.30;99.90
23069;DHT22;11702;50.856;4.348;2022-11-15T06:56:04;9.40;99.90
23069;DHT22;11702;50.856;4.348;2022-11-15T06:58:30;9.20;99.90
23069;DHT22;11702;50.856;4.348;2022-11-15T07:01:14;9.20;99.90
23069;DHT22;11702;50.856;4.348;2022-11-15T07:03:41;9.30;99.90
23069;DHT22;11702;50.856;4.348;2022-11-15T07:06:08;9.20;99.90
23069;DHT22;11702;50.856;4.348;2022-11-15T07:08:35;9.10;99.90
23069;DHT22;11702;50.856;4.348;2022-11-15T07:11:06;9.20;99.90
23069;DHT22;11702;50.856;4.348;2022-11-15T07:13:33;9.10;99.90
23069;DHT22;11702;50.856;4.348;2022-11-15T07:16:02;9.20;99.90
23069;DHT22;11702;50.856;4.348;2022-11-15T07:18:28;9.20;99.90
23069;DHT22;11702;50.856;4.348;2022-11-15T07:20:55;9.30;99.90
23069;DHT22;11702;50.856;4.348;2022-11-15T07:23:20;9.30;99.90
23069;DHT22;11702;50.856;4.348;2022-11-15T07:25:46;9.30;99.90
23069;DHT22;11702;50.856;4.348;2022-11-15T07:28:12;9.30;99.90
23069;DHT22;11702;50.856;4.348;2022-11-15T07:30:37;9.30;99.90
23069;DHT22;11702;50.856;4.348;2022-11-15T07:33:03;9.30;99.90
23069;DHT22;11702;50.856;4.348;2022-11-15T07:35:29;9.30;99.90
23069;DHT22;11702;50.856;4.348;2022-11-15T07:38:01;9.30;99.90
23069;DHT22;11702;50.856;4.348;2022-11-15T07:40:30;9.40;99.90
23069;DHT22;11702;50.856;4.348;2022-11-15T07:43:08;9.50;99.90
23069;DHT22;11702;50.856;4.348;2022-11-15T07:45:40;9.40;99.90
23069;DHT22;11702;50.856;4.348;2022-11-15T07:48:06;9.50;99.90
23069;DHT22;11702;50.856;4.348;2022-11-15T07:50:31;9.50;99.90
23069;DHT22;11702;50.856;4.348;2022-11-15T07:52:58;9.50;99.90
23069;DHT22;11702;50.856;4.348;2022-11-15T07:55:26;9.60;99.90
23069;DHT22;11702;50.856;4.348;2022-11-15T07:57:53;9.60;99.90
23069;DHT22;11702;50.856;4.348;2022-11-15T08:00:19;9.60;99.90
23069;DHT22;11702;50.856;4.348;2022-11-15T08:02:44;9.60;99.90
23069;DHT22;11702;50.856;4.348;2022-11-15T08:05:10;9.80;99.90
23069;DHT22;11702;50.856;4.348;2022-11-15T08:07:36;9.80;99.90
23069;DHT22;11702;50.856;4.348;2022-11-15T08:10:04;9.80;99.90
23069;DHT22;11702;50.856;4.348;2022-11-15T08:12:31;9.90;99.90
23069;DHT22;11702;50.856;4.348;2022-11-15T08:14:57;10.00;99.90
23069;DHT22;11702;50.856;4.348;2022-11-15T08:17:23;10.00;99.90
23069;DHT22;11702;50.856;4.348;2022-11-15T08:19:49;10.10;99.90
23069;DHT22;11702;50.856;4.348;2022-11-15T08:22:15;10.10;99.90
23069;DHT22;11702;50.856;4.348;2022-11-15T08:24:40;10.20;99.90
23069;DHT22;11702;50.856;4.348;2022-11-15T08:27:06;10.20;99.90
23069;DHT22;11702;50.856;4.348;2022-11-15T08:29:43;10.20;99.90
23069;DHT22;11702;50.856;4.348;2022-11-15T08:32:10;10.20;99.90
23069;DHT22;11702;50.856;4.348;2022-11-15T08:34:39;10.20;99.90
23069;DHT22;11702;50.856;4.348;2022-11-15T08:37:05;10.30;99.90
23069;DHT22;11702;50.856;4.348;2022-11-15T08:39:31;10.30;99.90
23069;DHT22;11702;50.856;4.348;2022-11-15T08:41:57;10.40;99.90
23069;DHT22;11702;50.856;4.348;2022-11-15T08:44:22;10.40;99.90
23069;DHT22;11702;50.856;4.348;2022-11-15T08:46:49;10.50;99.90
23069;DHT22;11702;50.856;4.348;2022-11-15T08:49:15;10.50;99.90
23069;DHT22;11702;50.856;4.348;2022-11-15T08:51:40;10.60;99.90
23069;DHT22;11702;50.856;4.348;2022-11-15T08:54:06;10.60;99.90
23069;DHT22;11702;50.856;4.348;2022-11-15T08:56:32;10.60;99.90
23069;DHT22;11702;50.856;4.348;2022-11-15T08:58:57;10.70;99.90
23069;DHT22;11702;50.856;4.348;2022-11-15T09:01:23;10.70;99.90
23069;DHT22;11702;50.856;4.348;2022-11-15T09:03:48;10.80;99.90
23069;DHT22;11702;50.856;4.348;2022-11-15T09:06:14;10.90;99.90
23069;DHT22;11702;50.856;4.348;2022-11-15T09:08:40;10.90;99.90
23069;DHT22;11702;50.856;4.348;2022-11-15T09:11:07;11.00;99.90
23069;DHT22;11702;50.856;4.348;2022-11-15T09:13:33;11.00;99.90
23069;DHT22;11702;50.856;4.348;2022-11-15T09:16:00;11.10;99.90
23069;DHT22;11702;50.856;4.348;2022-11-15T09:18:26;11.10;99.90
23069;DHT22;11702;50.856;4.348;2022-11-15T09:20:55;11.10;99.90
23069;DHT22;11702;50.856;4.348;2022-11-15T09:23:22;11.10;99.90
23069;DHT22;11702;50.856;4.348;2022-11-15T09:25:48;11.20;99.90
23069;DHT22;11702;50.856;4.348;2022-11-15T09:28:13;11.30;99.90
23069;DHT22;11702;50.856;4.348;2022-11-15T09:30:39;11.40;99.90
23069;DHT22;11702;50.856;4.348;2022-11-15T09:33:09;11.50;99.90
23069;DHT22;11702;50.856;4.348;2022-11-15T09:35:35;11.60;99.90
23069;DHT22;11702;50.856;4.348;2022-11-15T09:38:01;11.70;99.90
23069;DHT22;11702;50.856;4.348;2022-11-15T09:40:27;11.70;99.90
23069;DHT22;11702;50.856;4.348;2022-11-15T09:46:15;11.90;99.90
23069;DHT22;11702;50.856;4.348;2022-11-15T09:48:52;11.90;99.90
23069;DHT22;11702;50.856;4.348;2022-11-15T09:51:45;12.00;99.90
23069;DHT22;11702;50.856;4.348;2022-11-15T09:54:36;12.10;99.90
23069;DHT22;11702;50.856;4.348;2022-11-15T09:57:47;12.10;99.90
23069;DHT22;11702;50.856;4.348;2022-11-15T10:03:25;12.10;99.90
23069;DHT22;11702;50.856;4.348;2022-11-15T10:05:56;12.10;99.90
23069;DHT22;11702;50.856;4.348;2022-11-15T10:11:03;12.20;99.90
23069;DHT22;11702;50.856;4.348;2022-11-15T10:13:35;12.20;99.90
23069;DHT22;11702;50.856;4.348;2022-11-15T10:22:05;12.20;99.90
23069;DHT22;11702;50.856;4.348;2022-11-15T10:24:39;12.20;99.90
23069;DHT22;11702;50.856;4.348;2022-11-15T10:27:14;12.30;99.90
23069;DHT22;11702;50.856;4.348;2022-11-15T10:29:48;12.40;99.90
23069;DHT22;11702;50.856;4.348;2022-11-15T10:32:20;12.40;99.90
23069;DHT22;11702;50.856;4.348;2022-11-15T10:34:48;12.50;99.90
23069;DHT22;11702;50.856;4.348;2022-11-15T10:37:13;12.60;99.90
23069;DHT22;11702;50.856;4.348;2022-11-15T10:39:39;12.70;99.90
23069;DHT22;11702;50.856;4.348;2022-11-15T10:42:16;12.70;99.90
23069;DHT22;11702;50.856;4.348;2022-11-15T10:44:44;12.80;99.90
23069;DHT22;11702;50.856;4.348;2022-11-15T10:47:27;12.80;99.90
23069;DHT22;11702;50.856;4.348;2022-11-15T10:49:57;12.80;99.90
23069;DHT22;11702;50.856;4.348;2022-11-15T10:52:23;12.80;99.90
23069;DHT22;11702;50.856;4.348;2022-11-15T10:57:30;12.90;99.90
23069;DHT22;11702;50.856;4.348;2022-11-15T11:00:25;13.00;99.90
23069;DHT22;11702;50.856;4.348;2022-11-15T11:05:37;13.10;99.90
23069;DHT22;11702;50.856;4.348;2022-11-15T11:10:55;13.10;99.90
23069;DHT22;11702;50.856;4.348;2022-11-15T11:13:25;13.20;99.90
23069;DHT22;11702;50.856;4.348;2022-11-15T11:19:08;13.40;99.90
23069;DHT22;11702;50.856;4.348;2022-11-15T11:30:08;13.60;99.90
23069;DHT22;11702;50.856;4.348;2022-11-15T11:33:00;13.60;99.90
23069;DHT22;11702;50.856;4.348;2022-11-15T11:40:32;13.70;99.90
23069;DHT22;11702;50.856;4.348;2022-11-15T11:48:42;13.80;99.90
23069;DHT22;11702;50.856;4.348;2022-11-15T11:51:14;13.80;99.90
23069;DHT22;11702;50.856;4.348;2022-11-15T11:54:32;13.90;99.90
23069;DHT22;11702;50.856;4.348;2022-11-15T11:56:35;13.90;99.90
23069;DHT22;11702;50.856;4.348;2022-11-15T12:01:50;14.00;99.90
23069;DHT22;11702;50.856;4.348;2022-11-15T12:04:53;14.00;99.90
23069;DHT22;11702;50.856;4.348;2022-11-15T12:07:28;14.00;99.90
23069;DHT22;11702;50.856;4.348;2022-11-15T12:12:38;14.20;99.90
23069;DHT22;11702;50.856;4.348;2022-11-15T12:15:14;14.30;99.90
23069;DHT22;11702;50.856;4.348;2022-11-15T12:17:41;14.30;99.90
23069;DHT22;11702;50.856;4.348;2022-11-15T12:20:22;14.30;99.90
23069;DHT22;11702;50.856;4.348;2022-11-15T12:23:01;14.50;99.90
23069;DHT22;11702;50.856;4.348;2022-11-15T12:25:48;14.30;99.90
23069;DHT22;11702;50.856;4.348;2022-11-15T12:28:37;14.20;99.90
23069;DHT22;11702;50.856;4.348;2022-11-15T12:33:55;14.10;99.90
23069;DHT22;11702;50.856;4.348;2022-11-15T12:43:57;14.30;99.90
23069;DHT22;11702;50.856;4.348;2022-11-15T13:02:39;14.50;99.90
23069;DHT22;11702;50.856;4.348;2022-11-15T13:17:50;14.80;99.90
23069;DHT22;11702;50.856;4.348;2022-11-15T13:20:17;14.80;99.90
23069;DHT22;11702;50.856;4.348;2022-11-15T13:22:44;14.80;99.90
23069;DHT22;11702;50.856;4.348;2022-11-15T13:27:57;14.50;99.90
23069;DHT22;11702;50.856;4.348;2022-11-15T13:30:26;14.40;99.90
23069;DHT22;11702;50.856;4.348;2022-11-15T13:32:52;14.40;99.90
23069;DHT22;11702;50.856;4.348;2022-11-15T13:35:27;14.30;99.90
23069;DHT22;11702;50.856;4.348;2022-11-15T13:37:55;14.30;99.90
23069;DHT22;11702;50.856;4.348;2022-11-15T13:40:27;14.30;99.90
23069;DHT22;11702;50.856;4.348;2022-11-15T13:42:56;14.10;99.90
23069;DHT22;11702;50.856;4.348;2022-11-15T13:45:22;14.10;99.90
23069;DHT22;11702;50.856;4.348;2022-11-15T13:47:55;14.10;99.90
23069;DHT22;11702;50.856;4.348;2022-11-15T13:50:26;14.10;99.90
23069;DHT22;11702;50.856;4.348;2022-11-15T13:52:53;14.10;99.90
23069;DHT22;11702;50.856;4.348;2022-11-15T13:55:23;14.10;99.90
23069;DHT22;11702;50.856;4.348;2022-11-15T13:58:02;14.10;99.90
23069;DHT22;11702;50.856;4.348;2022-11-15T14:00:40;14.20;99.90
23069;DHT22;11702;50.856;4.348;2022-11-15T14:05:42;14.10;99.90
23069;DHT22;11702;50.856;4.348;2022-11-15T14:10:45;14.00;99.90
23069;DHT22;11702;50.856;4.348;2022-11-15T14:13:29;14.10;99.90
23069;DHT22;11702;50.856;4.348;2022-11-15T14:16:13;14.00;99.90
23069;DHT22;11702;50.856;4.348;2022-11-15T14:18:51;13.90;99.90
23069;DHT22;11702;50.856;4.348;2022-11-15T14:21:19;14.00;99.90
23069;DHT22;11702;50.856;4.348;2022-11-15T14:23:45;13.90;99.90
23069;DHT22;11702;50.856;4.348;2022-11-15T14:26:33;13.80;99.90
23069;DHT22;11702;50.856;4.348;2022-11-15T14:29:30;13.60;99.90
23069;DHT22;11702;50.856;4.348;2022-11-15T14:32:39;13.40;99.90
23069;DHT22;11702;50.856;4.348;2022-11-15T14:35:19;13.10;99.90
23069;DHT22;11702;50.856;4.348;2022-11-15T14:37:46;12.90;99.90
23069;DHT22;11702;50.856;4.348;2022-11-15T14:40:20;12.80;99.90
23069;DHT22;11702;50.856;4.348;2022-11-15T14:42:48;12.60;99.90
23069;DHT22;11702;50.856;4.348;2022-11-15T14:45:19;12.50;99.90
23069;DHT22;11702;50.856;4.348;2022-11-15T14:47:45;12.50;99.90
23069;DHT22;11702;50.856;4.348;2022-11-15T14:50:17;12.50;99.90
23069;DHT22;11702;50.856;4.348;2022-11-15T14:52:44;12.40;99.90
23069;DHT22;11702;50.856;4.348;2022-11-15T14:55:22;12.40;99.90
23069;DHT22;11702;50.856;4.348;2022-11-15T14:57:49;12.30;99.90
23069;DHT22;11702;50.856;4.348;2022-11-15T15:00:16;12.30;99.90
23069;DHT22;11702;50.856;4.348;2022-11-15T15:02:43;12.20;99.90
23069;DHT22;11702;50.856;4.348;2022-11-15T15:05:16;12.20;99.90
23069;DHT22;11702;50.856;4.348;2022-11-15T15:07:42;12.20;99.90
23069;DHT22;11702;50.856;4.348;2022-11-15T15:10:09;12.20;99.90
23069;DHT22;11702;50.856;4.348;2022-11-15T15:12:34;12.10;99.90
23069;DHT22;11702;50.856;4.348;2022-11-15T15:15:00;12.10;99.90
23069;DHT22;11702;50.856;4.348;2022-11-15T15:17:26;12.00;99.90
23069;DHT22;11702;50.856;4.348;2022-11-15T15:19:51;12.00;99.90
23069;DHT22;11702;50.856;4.348;2022-11-15T15:22:19;12.00;99.90
23069;DHT22;11702;50.856;4.348;2022-11-15T15:24:47;12.00;99.90
23069;DHT22;11702;50.856;4.348;2022-11-15T15:27:13;12.00;99.90
23069;DHT22;11702;50.856;4.348;2022-11-15T15:29:39;11.90;99.90
23069;DHT22;11702;50.856;4.348;2022-11-15T15:32:05;11.90;99.90
23069;DHT22;11702;50.856;4.348;2022-11-15T15:34:31;11.90;99.90
23069;DHT22;11702;50.856;4.348;2022-11-15T15:37:30;11.90;99.90
23069;DHT22;11702;50.856;4.348;2022-11-15T15:39:58;11.90;99.90
23069;DHT22;11702;50.856;4.348;2022-11-15T15:42:24;11.90;99.90
23069;DHT22;11702;50.856;4.348;2022-11-15T15:44:50;11.90;99.90
23069;DHT22;11702;50.856;4.348;2022-11-15T15:47:21;11.90;99.90
23069;DHT22;11702;50.856;4.348;2022-11-15T15:49:47;11.90;99.90
23069;DHT22;11702;50.856;4.348;2022-11-15T15:52:13;11.90;99.90
23069;DHT22;11702;50.856;4.348;2022-11-15T15:54:39;11.80;99.90
23069;DHT22;11702;50.856;4.348;2022-11-15T15:57:06;11.90;99.90
23069;DHT22;11702;50.856;4.348;2022-11-15T15:59:32;11.80;99.90
23069;DHT22;11702;50.856;4.348;2022-11-15T16:01:57;11.80;99.90
23069;DHT22;11702;50.856;4.348;2022-11-15T16:04:24;11.80;99.90
23069;DHT22;11702;50.856;4.348;2022-11-15T16:06:49;11.80;99.90
23069;DHT22;11702;50.856;4.348;2022-11-15T16:09:18;11.80;99.90
23069;DHT22;11702;50.856;4.348;2022-11-15T16:12:05;11.80;99.90
23069;DHT22;11702;50.856;4.348;2022-11-15T16:14:31;11.80;99.90
23069;DHT22;11702;50.856;4.348;2022-11-15T16:16:57;11.80;99.90
23069;DHT22;11702;50.856;4.348;2022-11-15T16:19:26;11.90;99.90
23069;DHT22;11702;50.856;4.348;2022-11-15T16:21:51;11.90;99.90
23069;DHT22;11702;50.856;4.348;2022-11-15T16:24:18;11.90;99.90
23069;DHT22;11702;50.856;4.348;2022-11-15T16:26:45;11.90;99.90
23069;DHT22;11702;50.856;4.348;2022-11-15T16:29:11;11.90;99.90
23069;DHT22;11702;50.856;4.348;2022-11-15T16:31:37;11.90;99.90
23069;DHT22;11702;50.856;4.348;2022-11-15T16:34:02;11.80;99.90
23069;DHT22;11702;50.856;4.348;2022-11-15T16:36:30;11.80;99.90
23069;DHT22;11702;50.856;4.348;2022-11-15T16:38:58;11.80;99.90
23069;DHT22;11702;50.856;4.348;2022-11-15T16:41:24;11.80;99.90
23069;DHT22;11702;50.856;4.348;2022-11-15T16:43:50;11.90;99.90
23069;DHT22;11702;50.856;4.348;2022-11-15T16:46:26;11.80;99.90
23069;DHT22;11702;50.856;4.348;2022-11-15T16:48:52;11.90;99.90
23069;DHT22;11702;50.856;4.348;2022-11-15T16:51:19;11.90;99.90
23069;DHT22;11702;50.856;4.348;2022-11-15T16:53:45;11.80;99.90
23069;DHT22;11702;50.856;4.348;2022-11-15T16:56:22;11.80;99.90
23069;DHT22;11702;50.856;4.348;2022-11-15T16:58:48;11.90;99.90
23069;DHT22;11702;50.856;4.348;2022-11-15T17:01:21;11.90;99.90
23069;DHT22;11702;50.856;4.348;2022-11-15T17:03:46;11.90;99.90
23069;DHT22;11702;50.856;4.348;2022-11-15T17:06:13;12.00;99.90
23069;DHT22;11702;50.856;4.348;2022-11-15T17:08:39;11.90;99.90
23069;DHT22;11702;50.856;4.348;2022-11-15T17:11:06;11.90;99.90
23069;DHT22;11702;50.856;4.348;2022-11-15T17:13:32;12.00;99.90
23069;DHT22;11702;50.856;4.348;2022-11-15T17:16:14;12.00;99.90
23069;DHT22;11702;50.856;4.348;2022-11-15T17:18:40;12.00;99.90
23069;DHT22;11702;50.856;4.348;2022-11-15T17:21:14;11.90;99.90
23069;DHT22;11702;50.856;4.348;2022-11-15T17:23:40;11.90;99.90
23069;DHT22;11702;50.856;4.348;2022-11-15T17:26:06;11.90;99.90
23069;DHT22;11702;50.856;4.348;2022-11-15T17:28:32;11.90;99.90
23069;DHT22;11702;50.856;4.348;2022-11-15T17:30:58;12.00;99.90
23069;DHT22;11702;50.856;4.348;2022-11-15T17:33:25;12.00;99.90
23069;DHT22;11702;50.856;4.348;2022-11-15T17:35:58;11.90;99.90
23069;DHT22;11702;50.856;4.348;2022-11-15T17:38:24;12.00;99.90
23069;DHT22;11702;50.856;4.348;2022-11-15T17:41:12;12.00;99.90
23069;DHT22;11702;50.856;4.348;2022-11-15T17:43:37;12.00;99.90